sensor_id;sensor_type;location;lat;lon;timestamp;pressure;altitude;pressure_sealevel;temperature
61703;BMP280;47622;47.726;3.298;2023-07-13T00:00:12;99322.72;;;15.74
61703;BMP280;47622;47.726;3.298;2023-07-13T00:02:41;99318.31;;;15.54
61703;BMP280;47622;47.726;3.298;2023-07-13T00:05:07;99324.16;;;15.59
61703;BMP280;47622;47.726;3.298;2023-07-13T00:07:33;99324.88;;;15.60
61703;BMP280;47622;47.726;3.298;2023-07-13T00:09:59;99323.56;;;15.66
61703;BMP280;47622;47.726;3.298;2023-07-13T00:12:31;99323.78;;;15.61
61703;BMP280;47622;47.726;3.298;2023-07-13T00:14:59;99329.84;;;15.61
61703;BMP280;47622;47.726;3.298;2023-07-13T00:17:26;99327.97;;;15.50
61703;BMP280;47622;47.726;3.298;2023-07-13T00:19:52;99329.97;;;15.53
61703;BMP280;47622;47.726;3.298;2023-07-13T00:22:18;99329.63;;;15.54
61703;BMP280;47622;47.726;3.298;2023-07-13T00:24:44;99331.25;;;15.47
61703;BMP280;47622;47.726;3.298;2023-07-13T00:27:11;99330.59;;;15.50
61703;BMP280;47622;47.726;3.298;2023-07-13T00:29:38;99330.97;;;15.48
61703;BMP280;47622;47.726;3.298;2023-07-13T00:32:06;99336.09;;;15.45
61703;BMP280;47622;47.726;3.298;2023-07-13T00:34:32;99328.63;;;15.47
61703;BMP280;47622;47.726;3.298;2023-07-13T00:36:58;99336.88;;;15.45
61703;BMP280;47622;47.726;3.298;2023-07-13T00:39:25;99324.94;;;15.27
61703;BMP280;47622;47.726;3.298;2023-07-13T00:41:51;99321.75;;;15.21
61703;BMP280;47622;47.726;3.298;2023-07-13T00:44:19;99329.34;;;15.23
61703;BMP280;47622;47.726;3.298;2023-07-13T00:46:45;99333.84;;;15.22
61703;BMP280;47622;47.726;3.298;2023-07-13T00:49:15;99333.72;;;15.19
61703;BMP280;47622;47.726;3.298;2023-07-13T00:54:18;99332.53;;;15.28
61703;BMP280;47622;47.726;3.298;2023-07-13T00:56:45;99330.13;;;15.23
61703;BMP280;47622;47.726;3.298;2023-07-13T00:59:13;99332.50;;;15.16
61703;BMP280;47622;47.726;3.298;2023-07-13T01:01:40;99332.72;;;15.11
61703;BMP280;47622;47.726;3.298;2023-07-13T01:04:05;99330.53;;;15.13
61703;BMP280;47622;47.726;3.298;2023-07-13T01:06:35;99324.81;;;15.23
61703;BMP280;47622;47.726;3.298;2023-07-13T01:09:02;99317.81;;;14.94
61703;BMP280;47622;47.726;3.298;2023-07-13T01:11:28;99321.03;;;15.00
61703;BMP280;47622;47.726;3.298;2023-07-13T01:13:53;99332.59;;;14.87
61703;BMP280;47622;47.726;3.298;2023-07-13T01:16:27;99337.00;;;14.83
61703;BMP280;47622;47.726;3.298;2023-07-13T01:18:54;99335.25;;;14.87
61703;BMP280;47622;47.726;3.298;2023-07-13T01:21:24;99333.28;;;14.84
61703;BMP280;47622;47.726;3.298;2023-07-13T01:23:49;99336.31;;;14.74
61703;BMP280;47622;47.726;3.298;2023-07-13T01:26:15;99344.25;;;14.86
61703;BMP280;47622;47.726;3.298;2023-07-13T01:28:41;99345.38;;;14.85
61703;BMP280;47622;47.726;3.298;2023-07-13T01:31:07;99345.38;;;14.64
61703;BMP280;47622;47.726;3.298;2023-07-13T01:33:33;99351.28;;;14.61
61703;BMP280;47622;47.726;3.298;2023-07-13T01:35:59;99352.06;;;14.61
61703;BMP280;47622;47.726;3.298;2023-07-13T01:38:28;99354.00;;;14.52
61703;BMP280;47622;47.726;3.298;2023-07-13T01:40:54;99358.22;;;14.45
61703;BMP280;47622;47.726;3.298;2023-07-13T01:43:20;99353.91;;;14.40
61703;BMP280;47622;47.726;3.298;2023-07-13T01:45:46;99354.56;;;14.37
61703;BMP280;47622;47.726;3.298;2023-07-13T01:48:13;99354.19;;;14.47
61703;BMP280;47622;47.726;3.298;2023-07-13T01:50:39;99353.28;;;14.43
61703;BMP280;47622;47.726;3.298;2023-07-13T01:53:05;99351.25;;;14.40
61703;BMP280;47622;47.726;3.298;2023-07-13T01:55:31;99345.09;;;14.36
61703;BMP280;47622;47.726;3.298;2023-07-13T01:57:57;99351.25;;;14.40
61703;BMP280;47622;47.726;3.298;2023-07-13T02:00:23;99354.06;;;14.35
61703;BMP280;47622;47.726;3.298;2023-07-13T02:02:50;99353.63;;;14.33
61703;BMP280;47622;47.726;3.298;2023-07-13T02:05:15;99357.19;;;14.37
61703;BMP280;47622;47.726;3.298;2023-07-13T02:07:42;99357.88;;;14.25
61703;BMP280;47622;47.726;3.298;2023-07-13T02:10:09;99355.09;;;14.22
61703;BMP280;47622;47.726;3.298;2023-07-13T02:12:35;99346.09;;;14.23
61703;BMP280;47622;47.726;3.298;2023-07-13T02:15:02;99358.81;;;14.21
61703;BMP280;47622;47.726;3.298;2023-07-13T02:17:27;99355.59;;;14.15
61703;BMP280;47622;47.726;3.298;2023-07-13T02:19:53;99342.84;;;14.17
61703;BMP280;47622;47.726;3.298;2023-07-13T02:22:19;99351.72;;;14.13
61703;BMP280;47622;47.726;3.298;2023-07-13T02:24:45;99353.91;;;14.11
61703;BMP280;47622;47.726;3.298;2023-07-13T02:27:11;99346.38;;;14.00
61703;BMP280;47622;47.726;3.298;2023-07-13T02:29:36;99355.81;;;14.01
61703;BMP280;47622;47.726;3.298;2023-07-13T02:32:02;99348.63;;;14.11
61703;BMP280;47622;47.726;3.298;2023-07-13T02:34:29;99353.13;;;14.10
61703;BMP280;47622;47.726;3.298;2023-07-13T02:36:54;99355.63;;;14.07
61703;BMP280;47622;47.726;3.298;2023-07-13T02:39:20;99355.19;;;14.04
61703;BMP280;47622;47.726;3.298;2023-07-13T02:41:46;99349.50;;;13.94
61703;BMP280;47622;47.726;3.298;2023-07-13T02:44:16;99349.31;;;13.90
61703;BMP280;47622;47.726;3.298;2023-07-13T02:46:41;99350.28;;;13.77
61703;BMP280;47622;47.726;3.298;2023-07-13T02:49:07;99357.13;;;13.78
61703;BMP280;47622;47.726;3.298;2023-07-13T02:51:33;99356.22;;;13.74
61703;BMP280;47622;47.726;3.298;2023-07-13T02:54:00;99354.50;;;13.78
61703;BMP280;47622;47.726;3.298;2023-07-13T02:56:29;99363.31;;;13.82
61703;BMP280;47622;47.726;3.298;2023-07-13T02:58:55;99359.91;;;13.82
61703;BMP280;47622;47.726;3.298;2023-07-13T03:01:22;99363.47;;;13.86
61703;BMP280;47622;47.726;3.298;2023-07-13T03:03:49;99353.88;;;13.81
61703;BMP280;47622;47.726;3.298;2023-07-13T03:06:16;99352.63;;;13.79
61703;BMP280;47622;47.726;3.298;2023-07-13T03:08:42;99344.59;;;13.75
61703;BMP280;47622;47.726;3.298;2023-07-13T03:11:11;99347.38;;;13.79
61703;BMP280;47622;47.726;3.298;2023-07-13T03:13:38;99354.69;;;13.73
61703;BMP280;47622;47.726;3.298;2023-07-13T03:16:04;99359.34;;;13.59
61703;BMP280;47622;47.726;3.298;2023-07-13T03:18:30;99361.22;;;13.67
61703;BMP280;47622;47.726;3.298;2023-07-13T03:20:55;99356.22;;;13.74
61703;BMP280;47622;47.726;3.298;2023-07-13T03:23:22;99358.25;;;13.60
61703;BMP280;47622;47.726;3.298;2023-07-13T03:25:48;99362.16;;;13.54
61703;BMP280;47622;47.726;3.298;2023-07-13T03:28:14;99360.94;;;13.43
61703;BMP280;47622;47.726;3.298;2023-07-13T03:30:41;99362.19;;;13.36
61703;BMP280;47622;47.726;3.298;2023-07-13T03:33:08;99364.00;;;13.45
61703;BMP280;47622;47.726;3.298;2023-07-13T03:35:35;99359.69;;;13.40
61703;BMP280;47622;47.726;3.298;2023-07-13T03:38:00;99368.38;;;13.40
61703;BMP280;47622;47.726;3.298;2023-07-13T03:40:28;99369.00;;;13.37
61703;BMP280;47622;47.726;3.298;2023-07-13T03:42:53;99369.31;;;13.27
61703;BMP280;47622;47.726;3.298;2023-07-13T03:45:20;99371.63;;;13.29
61703;BMP280;47622;47.726;3.298;2023-07-13T03:47:47;99367.13;;;13.29
61703;BMP280;47622;47.726;3.298;2023-07-13T03:50:12;99375.66;;;13.26
61703;BMP280;47622;47.726;3.298;2023-07-13T03:52:38;99388.19;;;13.29
61703;BMP280;47622;47.726;3.298;2023-07-13T03:55:04;99390.53;;;13.22
61703;BMP280;47622;47.726;3.298;2023-07-13T03:57:31;99396.72;;;13.26
61703;BMP280;47622;47.726;3.298;2023-07-13T03:59:56;99403.53;;;13.27
61703;BMP280;47622;47.726;3.298;2023-07-13T04:02:22;99403.69;;;13.22
61703;BMP280;47622;47.726;3.298;2023-07-13T04:04:47;99407.28;;;13.18
61703;BMP280;47622;47.726;3.298;2023-07-13T04:07:13;99402.47;;;13.28
61703;BMP280;47622;47.726;3.298;2023-07-13T04:09:39;99411.16;;;13.37
61703;BMP280;47622;47.726;3.298;2023-07-13T04:12:05;99412.53;;;13.26
61703;BMP280;47622;47.726;3.298;2023-07-13T04:14:30;99411.75;;;13.17
61703;BMP280;47622;47.726;3.298;2023-07-13T04:16:56;99416.72;;;13.27
61703;BMP280;47622;47.726;3.298;2023-07-13T04:19:23;99408.22;;;13.30
61703;BMP280;47622;47.726;3.298;2023-07-13T04:21:48;99416.84;;;13.39
61703;BMP280;47622;47.726;3.298;2023-07-13T04:24:15;99412.25;;;13.36
61703;BMP280;47622;47.726;3.298;2023-07-13T04:26:41;99410.53;;;13.40
61703;BMP280;47622;47.726;3.298;2023-07-13T04:29:07;99425.72;;;13.44
61703;BMP280;47622;47.726;3.298;2023-07-13T04:31:33;99426.16;;;13.46
61703;BMP280;47622;47.726;3.298;2023-07-13T04:33:59;99434.19;;;13.66
61703;BMP280;47622;47.726;3.298;2023-07-13T04:36:25;99427.97;;;13.71
61703;BMP280;47622;47.726;3.298;2023-07-13T04:38:53;99438.25;;;13.72
61703;BMP280;47622;47.726;3.298;2023-07-13T04:41:20;99439.47;;;13.66
61703;BMP280;47622;47.726;3.298;2023-07-13T04:43:46;99441.78;;;13.77
61703;BMP280;47622;47.726;3.298;2023-07-13T04:46:16;99445.19;;;13.94
61703;BMP280;47622;47.726;3.298;2023-07-13T04:48:43;99453.38;;;13.93
61703;BMP280;47622;47.726;3.298;2023-07-13T04:51:09;99452.78;;;13.87
61703;BMP280;47622;47.726;3.298;2023-07-13T04:53:35;99457.59;;;13.85
61703;BMP280;47622;47.726;3.298;2023-07-13T04:56:02;99451.06;;;13.91
61703;BMP280;47622;47.726;3.298;2023-07-13T04:58:28;99462.81;;;14.02
61703;BMP280;47622;47.726;3.298;2023-07-13T05:00:59;99464.31;;;14.21
61703;BMP280;47622;47.726;3.298;2023-07-13T05:03:25;99463.41;;;14.17
61703;BMP280;47622;47.726;3.298;2023-07-13T05:05:58;99467.63;;;14.09
61703;BMP280;47622;47.726;3.298;2023-07-13T05:08:23;99460.19;;;14.11
61703;BMP280;47622;47.726;3.298;2023-07-13T05:10:50;99468.56;;;14.13
61703;BMP280;47622;47.726;3.298;2023-07-13T05:13:16;99477.69;;;14.16
61703;BMP280;47622;47.726;3.298;2023-07-13T05:15:41;99470.22;;;14.26
61703;BMP280;47622;47.726;3.298;2023-07-13T05:18:07;99473.13;;;14.33
61703;BMP280;47622;47.726;3.298;2023-07-13T05:20:33;99470.16;;;14.35
61703;BMP280;47622;47.726;3.298;2023-07-13T05:22:58;99480.44;;;14.28
61703;BMP280;47622;47.726;3.298;2023-07-13T05:25:24;99469.41;;;14.34
61703;BMP280;47622;47.726;3.298;2023-07-13T05:27:49;99475.09;;;14.45
61703;BMP280;47622;47.726;3.298;2023-07-13T05:30:15;99472.56;;;14.57
61703;BMP280;47622;47.726;3.298;2023-07-13T05:32:41;99465.38;;;14.66
61703;BMP280;47622;47.726;3.298;2023-07-13T05:35:07;99463.03;;;14.74
61703;BMP280;47622;47.726;3.298;2023-07-13T05:37:33;99479.88;;;14.81
61703;BMP280;47622;47.726;3.298;2023-07-13T05:39:58;99470.06;;;14.90
61703;BMP280;47622;47.726;3.298;2023-07-13T05:42:24;99468.22;;;14.91
61703;BMP280;47622;47.726;3.298;2023-07-13T05:44:49;99463.84;;;14.86
61703;BMP280;47622;47.726;3.298;2023-07-13T05:47:15;99475.25;;;15.08
61703;BMP280;47622;47.726;3.298;2023-07-13T05:49:41;99479.47;;;15.42
61703;BMP280;47622;47.726;3.298;2023-07-13T05:52:07;99478.94;;;15.69
61703;BMP280;47622;47.726;3.298;2023-07-13T05:54:32;99478.44;;;15.55
61703;BMP280;47622;47.726;3.298;2023-07-13T05:56:58;99477.81;;;15.58
61703;BMP280;47622;47.726;3.298;2023-07-13T05:59:24;99477.84;;;15.70
61703;BMP280;47622;47.726;3.298;2023-07-13T06:01:50;99485.00;;;15.70
61703;BMP280;47622;47.726;3.298;2023-07-13T06:04:18;99480.97;;;15.84
61703;BMP280;47622;47.726;3.298;2023-07-13T06:06:44;99478.38;;;16.09
61703;BMP280;47622;47.726;3.298;2023-07-13T06:09:10;99480.91;;;16.17
61703;BMP280;47622;47.726;3.298;2023-07-13T06:11:37;99484.56;;;16.25
61703;BMP280;47622;47.726;3.298;2023-07-13T06:14:03;99479.03;;;16.42
61703;BMP280;47622;47.726;3.298;2023-07-13T06:16:29;99485.44;;;16.53
61703;BMP280;47622;47.726;3.298;2023-07-13T06:18:55;99478.03;;;16.71
61703;BMP280;47622;47.726;3.298;2023-07-13T06:21:21;99483.44;;;16.87
61703;BMP280;47622;47.726;3.298;2023-07-13T06:23:49;99486.25;;;16.94
61703;BMP280;47622;47.726;3.298;2023-07-13T06:26:17;99491.22;;;16.96
61703;BMP280;47622;47.726;3.298;2023-07-13T06:28:43;99496.00;;;17.02
61703;BMP280;47622;47.726;3.298;2023-07-13T06:31:10;99485.97;;;17.23
61703;BMP280;47622;47.726;3.298;2023-07-13T06:33:36;99489.69;;;18.41
61703;BMP280;47622;47.726;3.298;2023-07-13T06:36:04;99494.56;;;21.10
61703;BMP280;47622;47.726;3.298;2023-07-13T06:38:30;99502.34;;;23.96
61703;BMP280;47622;47.726;3.298;2023-07-13T06:40:56;99511.00;;;25.16
61703;BMP280;47622;47.726;3.298;2023-07-13T06:43:21;99516.81;;;25.59
61703;BMP280;47622;47.726;3.298;2023-07-13T06:45:48;99516.69;;;24.66
61703;BMP280;47622;47.726;3.298;2023-07-13T06:48:17;99511.53;;;24.02
61703;BMP280;47622;47.726;3.298;2023-07-13T06:50:43;99497.66;;;24.25
61703;BMP280;47622;47.726;3.298;2023-07-13T06:53:11;99500.75;;;24.24
61703;BMP280;47622;47.726;3.298;2023-07-13T06:55:38;99506.50;;;24.18
61703;BMP280;47622;47.726;3.298;2023-07-13T06:58:04;99495.50;;;23.81
61703;BMP280;47622;47.726;3.298;2023-07-13T07:00:30;99498.16;;;23.31
61703;BMP280;47622;47.726;3.298;2023-07-13T07:02:55;99503.16;;;23.43
61703;BMP280;47622;47.726;3.298;2023-07-13T07:05:21;99503.13;;;23.36
61703;BMP280;47622;47.726;3.298;2023-07-13T07:07:51;99503.13;;;23.86
61703;BMP280;47622;47.726;3.298;2023-07-13T07:10:18;99512.94;;;24.39
61703;BMP280;47622;47.726;3.298;2023-07-13T07:12:44;99510.03;;;24.85
61703;BMP280;47622;47.726;3.298;2023-07-13T07:15:10;99494.88;;;25.16
61703;BMP280;47622;47.726;3.298;2023-07-13T07:17:36;99505.06;;;27.51
61703;BMP280;47622;47.726;3.298;2023-07-13T07:20:02;99517.91;;;29.07
61703;BMP280;47622;47.726;3.298;2023-07-13T07:22:29;99515.41;;;30.54
61703;BMP280;47622;47.726;3.298;2023-07-13T07:24:56;99530.19;;;31.56
61703;BMP280;47622;47.726;3.298;2023-07-13T07:27:21;99524.81;;;31.22
61703;BMP280;47622;47.726;3.298;2023-07-13T07:29:47;99538.25;;;33.16
61703;BMP280;47622;47.726;3.298;2023-07-13T07:32:12;99541.81;;;33.77
61703;BMP280;47622;47.726;3.298;2023-07-13T07:34:38;99540.53;;;33.96
61703;BMP280;47622;47.726;3.298;2023-07-13T07:37:04;99543.09;;;34.32
61703;BMP280;47622;47.726;3.298;2023-07-13T07:39:30;99540.28;;;34.89
61703;BMP280;47622;47.726;3.298;2023-07-13T07:41:55;99543.00;;;34.89
61703;BMP280;47622;47.726;3.298;2023-07-13T07:44:21;99541.94;;;35.39
61703;BMP280;47622;47.726;3.298;2023-07-13T07:46:47;99536.19;;;35.08
61703;BMP280;47622;47.726;3.298;2023-07-13T07:49:14;99534.22;;;36.02
61703;BMP280;47622;47.726;3.298;2023-07-13T07:51:39;99522.72;;;36.79
61703;BMP280;47622;47.726;3.298;2023-07-13T07:54:05;99529.75;;;36.85
61703;BMP280;47622;47.726;3.298;2023-07-13T07:56:31;99519.00;;;36.76
61703;BMP280;47622;47.726;3.298;2023-07-13T07:58:57;99525.78;;;36.40
61703;BMP280;47622;47.726;3.298;2023-07-13T08:01:22;99534.13;;;36.72
61703;BMP280;47622;47.726;3.298;2023-07-13T08:03:48;99526.25;;;37.11
61703;BMP280;47622;47.726;3.298;2023-07-13T08:06:14;99522.81;;;36.64
61703;BMP280;47622;47.726;3.298;2023-07-13T08:08:39;99520.28;;;36.81
61703;BMP280;47622;47.726;3.298;2023-07-13T08:11:06;99525.84;;;36.92
61703;BMP280;47622;47.726;3.298;2023-07-13T08:13:33;99521.41;;;37.94
61703;BMP280;47622;47.726;3.298;2023-07-13T08:15:59;99526.38;;;37.59
61703;BMP280;47622;47.726;3.298;2023-07-13T08:18:25;99532.72;;;38.18
61703;BMP280;47622;47.726;3.298;2023-07-13T08:20:50;99526.25;;;38.21
61703;BMP280;47622;47.726;3.298;2023-07-13T08:23:17;99523.44;;;37.31
61703;BMP280;47622;47.726;3.298;2023-07-13T08:25:43;99526.72;;;36.17
61703;BMP280;47622;47.726;3.298;2023-07-13T08:28:15;99526.78;;;35.09
61703;BMP280;47622;47.726;3.298;2023-07-13T08:30:41;99525.00;;;35.65
61703;BMP280;47622;47.726;3.298;2023-07-13T08:33:06;99534.25;;;36.42
61703;BMP280;47622;47.726;3.298;2023-07-13T08:35:32;99529.53;;;36.43
61703;BMP280;47622;47.726;3.298;2023-07-13T08:37:57;99528.00;;;37.08
61703;BMP280;47622;47.726;3.298;2023-07-13T08:40:25;99529.59;;;37.52
61703;BMP280;47622;47.726;3.298;2023-07-13T08:42:54;99523.94;;;37.61
61703;BMP280;47622;47.726;3.298;2023-07-13T08:48:03;99526.97;;;38.22
61703;BMP280;47622;47.726;3.298;2023-07-13T08:50:30;99538.53;;;38.37
61703;BMP280;47622;47.726;3.298;2023-07-13T08:53:02;99525.72;;;37.07
61703;BMP280;47622;47.726;3.298;2023-07-13T08:55:31;99530.97;;;37.36
61703;BMP280;47622;47.726;3.298;2023-07-13T08:58:16;99541.53;;;37.49
61703;BMP280;47622;47.726;3.298;2023-07-13T09:00:59;99534.72;;;37.07
61703;BMP280;47622;47.726;3.298;2023-07-13T09:03:31;99526.91;;;36.74
61703;BMP280;47622;47.726;3.298;2023-07-13T09:06:02;99527.25;;;36.01
61703;BMP280;47622;47.726;3.298;2023-07-13T09:16:51;99530.16;;;33.76
61703;BMP280;47622;47.726;3.298;2023-07-13T09:19:37;99532.91;;;34.00
61703;BMP280;47622;47.726;3.298;2023-07-13T09:22:07;99539.78;;;34.28
61703;BMP280;47622;47.726;3.298;2023-07-13T09:27:14;99529.91;;;30.85
61703;BMP280;47622;47.726;3.298;2023-07-13T09:29:47;99522.38;;;28.49
61703;BMP280;47622;47.726;3.298;2023-07-13T09:32:18;99533.88;;;27.74
61703;BMP280;47622;47.726;3.298;2023-07-13T09:34:55;99534.84;;;27.17
61703;BMP280;47622;47.726;3.298;2023-07-13T09:37:24;99531.88;;;26.85
61703;BMP280;47622;47.726;3.298;2023-07-13T09:39:55;99535.00;;;27.96
61703;BMP280;47622;47.726;3.298;2023-07-13T09:42:22;99541.94;;;27.97
61703;BMP280;47622;47.726;3.298;2023-07-13T09:44:54;99528.72;;;27.64
61703;BMP280;47622;47.726;3.298;2023-07-13T09:47:24;99544.84;;;27.17
61703;BMP280;47622;47.726;3.298;2023-07-13T09:50:00;99544.72;;;27.51
61703;BMP280;47622;47.726;3.298;2023-07-13T09:52:26;99547.19;;;27.85
61703;BMP280;47622;47.726;3.298;2023-07-13T09:54:55;99548.66;;;28.45
61703;BMP280;47622;47.726;3.298;2023-07-13T09:57:26;99548.31;;;27.87
61703;BMP280;47622;47.726;3.298;2023-07-13T09:59:53;99549.38;;;27.70
61703;BMP280;47622;47.726;3.298;2023-07-13T10:02:28;99561.28;;;27.92
61703;BMP280;47622;47.726;3.298;2023-07-13T10:04:59;99563.81;;;28.23
61703;BMP280;47622;47.726;3.298;2023-07-13T10:07:26;99554.69;;;28.17
61703;BMP280;47622;47.726;3.298;2023-07-13T10:09:59;99552.56;;;28.80
61703;BMP280;47622;47.726;3.298;2023-07-13T10:12:29;99551.16;;;28.56
61703;BMP280;47622;47.726;3.298;2023-07-13T10:14:57;99548.34;;;27.41
61703;BMP280;47622;47.726;3.298;2023-07-13T10:17:28;99546.06;;;26.89
61703;BMP280;47622;47.726;3.298;2023-07-13T10:19:59;99561.63;;;26.10
61703;BMP280;47622;47.726;3.298;2023-07-13T10:25:20;99560.94;;;26.97
61703;BMP280;47622;47.726;3.298;2023-07-13T10:27:53;99560.94;;;28.14
61703;BMP280;47622;47.726;3.298;2023-07-13T10:32:49;99560.41;;;27.79
61703;BMP280;47622;47.726;3.298;2023-07-13T10:35:19;99569.88;;;27.87
61703;BMP280;47622;47.726;3.298;2023-07-13T10:37:55;99564.78;;;27.70
61703;BMP280;47622;47.726;3.298;2023-07-13T10:40:28;99558.56;;;27.30
61703;BMP280;47622;47.726;3.298;2023-07-13T10:42:57;99552.66;;;27.11
61703;BMP280;47622;47.726;3.298;2023-07-13T10:45:23;99558.53;;;26.76
61703;BMP280;47622;47.726;3.298;2023-07-13T10:47:52;99554.94;;;26.86
61703;BMP280;47622;47.726;3.298;2023-07-13T10:50:26;99555.00;;;27.99
61703;BMP280;47622;47.726;3.298;2023-07-13T10:52:55;99552.81;;;29.02
61703;BMP280;47622;47.726;3.298;2023-07-13T11:01:09;99553.97;;;26.73
61703;BMP280;47622;47.726;3.298;2023-07-13T11:03:49;99564.47;;;28.27
61703;BMP280;47622;47.726;3.298;2023-07-13T11:06:33;99562.28;;;28.22
61703;BMP280;47622;47.726;3.298;2023-07-13T11:11:45;99571.31;;;29.65
61703;BMP280;47622;47.726;3.298;2023-07-13T11:22:53;99560.50;;;29.65
61703;BMP280;47622;47.726;3.298;2023-07-13T11:25:33;99565.50;;;29.21
61703;BMP280;47622;47.726;3.298;2023-07-13T11:33:20;99559.38;;;28.85
61703;BMP280;47622;47.726;3.298;2023-07-13T11:36:06;99557.13;;;29.15
61703;BMP280;47622;47.726;3.298;2023-07-13T11:41:05;99551.81;;;30.53
61703;BMP280;47622;47.726;3.298;2023-07-13T11:43:31;99556.66;;;30.96
61703;BMP280;47622;47.726;3.298;2023-07-13T11:46:15;99544.44;;;30.41
61703;BMP280;47622;47.726;3.298;2023-07-13T11:48:41;99545.97;;;29.75
61703;BMP280;47622;47.726;3.298;2023-07-13T11:51:26;99545.22;;;29.87
61703;BMP280;47622;47.726;3.298;2023-07-13T11:53:54;99539.03;;;30.41
61703;BMP280;47622;47.726;3.298;2023-07-13T11:56:22;99532.41;;;30.54
61703;BMP280;47622;47.726;3.298;2023-07-13T11:58:53;99539.16;;;29.83
61703;BMP280;47622;47.726;3.298;2023-07-13T12:01:24;99538.03;;;29.68
61703;BMP280;47622;47.726;3.298;2023-07-13T12:03:51;99535.31;;;28.90
61703;BMP280;47622;47.726;3.298;2023-07-13T12:06:29;99541.00;;;28.80
61703;BMP280;47622;47.726;3.298;2023-07-13T12:09:03;99534.25;;;29.04
61703;BMP280;47622;47.726;3.298;2023-07-13T12:11:40;99533.53;;;29.90
61703;BMP280;47622;47.726;3.298;2023-07-13T12:14:06;99522.97;;;30.08
61703;BMP280;47622;47.726;3.298;2023-07-13T12:16:32;99536.97;;;29.78
61703;BMP280;47622;47.726;3.298;2023-07-13T12:18:59;99533.84;;;29.34
61703;BMP280;47622;47.726;3.298;2023-07-13T12:21:36;99520.72;;;28.88
61703;BMP280;47622;47.726;3.298;2023-07-13T12:24:03;99533.56;;;28.31
61703;BMP280;47622;47.726;3.298;2023-07-13T12:26:30;99534.91;;;28.59
61703;BMP280;47622;47.726;3.298;2023-07-13T12:29:05;99534.06;;;28.78
61703;BMP280;47622;47.726;3.298;2023-07-13T12:31:41;99536.69;;;29.60
61703;BMP280;47622;47.726;3.298;2023-07-13T12:34:08;99535.38;;;29.93
61703;BMP280;47622;47.726;3.298;2023-07-13T12:36:38;99526.78;;;30.49
61703;BMP280;47622;47.726;3.298;2023-07-13T12:39:29;99535.94;;;29.30
61703;BMP280;47622;47.726;3.298;2023-07-13T12:44:42;99527.75;;;30.29
61703;BMP280;47622;47.726;3.298;2023-07-13T12:47:16;99520.78;;;30.03
61703;BMP280;47622;47.726;3.298;2023-07-13T12:49:49;99524.59;;;30.18
61703;BMP280;47622;47.726;3.298;2023-07-13T12:52:43;99523.75;;;30.21
61703;BMP280;47622;47.726;3.298;2023-07-13T12:55:15;99518.66;;;30.23
61703;BMP280;47622;47.726;3.298;2023-07-13T12:57:51;99522.69;;;30.31
61703;BMP280;47622;47.726;3.298;2023-07-13T13:00:36;99530.63;;;29.97
61703;BMP280;47622;47.726;3.298;2023-07-13T13:05:40;99531.38;;;29.56
61703;BMP280;47622;47.726;3.298;2023-07-13T13:08:11;99522.44;;;29.72
61703;BMP280;47622;47.726;3.298;2023-07-13T13:10:36;99528.72;;;29.69
61703;BMP280;47622;47.726;3.298;2023-07-13T13:13:03;99506.97;;;28.14
61703;BMP280;47622;47.726;3.298;2023-07-13T13:15:28;99509.72;;;29.27
61703;BMP280;47622;47.726;3.298;2023-07-13T13:17:55;99509.19;;;29.90
61703;BMP280;47622;47.726;3.298;2023-07-13T13:20:24;99515.38;;;29.62
61703;BMP280;47622;47.726;3.298;2023-07-13T13:22:51;99509.44;;;29.67
61703;BMP280;47622;47.726;3.298;2023-07-13T13:25:18;99507.84;;;30.49
61703;BMP280;47622;47.726;3.298;2023-07-13T13:27:45;99509.50;;;29.50
61703;BMP280;47622;47.726;3.298;2023-07-13T13:30:13;99497.75;;;28.63
61703;BMP280;47622;47.726;3.298;2023-07-13T13:32:40;99505.06;;;28.30
61703;BMP280;47622;47.726;3.298;2023-07-13T13:35:14;99502.69;;;28.68
61703;BMP280;47622;47.726;3.298;2023-07-13T13:37:40;99500.63;;;29.50
61703;BMP280;47622;47.726;3.298;2023-07-13T13:40:17;99499.63;;;28.99
61703;BMP280;47622;47.726;3.298;2023-07-13T13:42:43;99495.47;;;28.10
61703;BMP280;47622;47.726;3.298;2023-07-13T13:45:10;99494.63;;;27.73
61703;BMP280;47622;47.726;3.298;2023-07-13T13:47:37;99491.84;;;27.96
61703;BMP280;47622;47.726;3.298;2023-07-13T13:50:36;99495.38;;;28.49
61703;BMP280;47622;47.726;3.298;2023-07-13T13:53:02;99496.81;;;29.02
61703;BMP280;47622;47.726;3.298;2023-07-13T13:55:27;99503.09;;;29.44
61703;BMP280;47622;47.726;3.298;2023-07-13T13:57:53;99493.38;;;28.69
61703;BMP280;47622;47.726;3.298;2023-07-13T14:00:20;99499.03;;;28.59
61703;BMP280;47622;47.726;3.298;2023-07-13T14:02:49;99507.03;;;28.46
61703;BMP280;47622;47.726;3.298;2023-07-13T14:05:24;99501.94;;;29.29
61703;BMP280;47622;47.726;3.298;2023-07-13T14:07:53;99498.06;;;29.14
61703;BMP280;47622;47.726;3.298;2023-07-13T14:10:20;99501.47;;;28.69
61703;BMP280;47622;47.726;3.298;2023-07-13T14:12:48;99488.94;;;27.68
61703;BMP280;47622;47.726;3.298;2023-07-13T14:15:27;99496.25;;;27.47
61703;BMP280;47622;47.726;3.298;2023-07-13T14:17:54;99484.53;;;28.17
61703;BMP280;47622;47.726;3.298;2023-07-13T14:20:22;99490.84;;;28.78
61703;BMP280;47622;47.726;3.298;2023-07-13T14:22:49;99484.53;;;28.17
61703;BMP280;47622;47.726;3.298;2023-07-13T14:25:16;99498.88;;;28.30
61703;BMP280;47622;47.726;3.298;2023-07-13T14:27:43;99489.06;;;28.72
61703;BMP280;47622;47.726;3.298;2023-07-13T14:30:18;99501.97;;;28.97
61703;BMP280;47622;47.726;3.298;2023-07-13T14:32:44;99497.75;;;28.96
61703;BMP280;47622;47.726;3.298;2023-07-13T14:35:12;99486.06;;;29.31
61703;BMP280;47622;47.726;3.298;2023-07-13T14:37:39;99495.16;;;28.76
61703;BMP280;47622;47.726;3.298;2023-07-13T14:40:19;99481.19;;;27.89
61703;BMP280;47622;47.726;3.298;2023-07-13T14:42:47;99488.25;;;27.83
61703;BMP280;47622;47.726;3.298;2023-07-13T14:45:14;99486.88;;;27.75
61703;BMP280;47622;47.726;3.298;2023-07-13T14:47:40;99478.28;;;27.80
61703;BMP280;47622;47.726;3.298;2023-07-13T14:50:15;99470.16;;;28.04
61703;BMP280;47622;47.726;3.298;2023-07-13T14:52:42;99477.56;;;27.37
61703;BMP280;47622;47.726;3.298;2023-07-13T14:55:12;99468.03;;;26.59
61703;BMP280;47622;47.726;3.298;2023-07-13T14:57:38;99478.63;;;26.69
61703;BMP280;47622;47.726;3.298;2023-07-13T15:00:22;99470.28;;;26.33
61703;BMP280;47622;47.726;3.298;2023-07-13T15:02:53;99474.63;;;26.54
61703;BMP280;47622;47.726;3.298;2023-07-13T15:05:25;99474.63;;;26.81